sensor_id;sensor_type;location;lat;lon;timestamp;P1;durP1;ratioP1;P2;durP2;ratioP2
21243;SDS011;10780;50.942;4.028;2023-02-08T00:01:09;73.65;;;36.22;;
21243;SDS011;10780;50.942;4.028;2023-02-08T00:03:37;68.85;;;36.10;;
21243;SDS011;10780;50.942;4.028;2023-02-08T00:06:03;69.72;;;35.60;;
21243;SDS011;10780;50.942;4.028;2023-02-08T00:08:30;70.95;;;35.47;;
21243;SDS011;10780;50.942;4.028;2023-02-08T00:10:57;70.57;;;38.53;;
21243;SDS011;10780;50.942;4.028;2023-02-08T00:13:22;69.13;;;37.20;;
21243;SDS011;10780;50.942;4.028;2023-02-08T00:15:50;77.47;;;38.30;;
21243;SDS011;10780;50.942;4.028;2023-02-08T00:18:16;72.88;;;38.03;;
21243;SDS011;10780;50.942;4.028;2023-02-08T00:20:42;66.90;;;37.05;;
21243;SDS011;10780;50.942;4.028;2023-02-08T00:23:08;70.88;;;37.88;;
21243;SDS011;10780;50.942;4.028;2023-02-08T00:25:35;69.95;;;36.72;;
21243;SDS011;10780;50.942;4.028;2023-02-08T00:28:00;77.35;;;36.13;;
21243;SDS011;10780;50.942;4.028;2023-02-08T00:30:26;73.57;;;36.00;;
21243;SDS011;10780;50.942;4.028;2023-02-08T00:32:52;68.43;;;35.28;;
21243;SDS011;10780;50.942;4.028;2023-02-08T00:35:18;66.28;;;35.83;;
21243;SDS011;10780;50.942;4.028;2023-02-08T00:37:43;65.45;;;35.30;;
21243;SDS011;10780;50.942;4.028;2023-02-08T00:40:09;67.90;;;34.22;;
21243;SDS011;10780;50.942;4.028;2023-02-08T00:42:35;71.00;;;33.83;;
21243;SDS011;10780;50.942;4.028;2023-02-08T00:45:01;65.07;;;33.08;;
21243;SDS011;10780;50.942;4.028;2023-02-08T00:47:27;59.80;;;32.47;;
21243;SDS011;10780;50.942;4.028;2023-02-08T00:49:52;62.15;;;31.02;;
21243;SDS011;10780;50.942;4.028;2023-02-08T00:52:18;53.47;;;30.30;;
21243;SDS011;10780;50.942;4.028;2023-02-08T00:54:44;56.90;;;30.38;;
21243;SDS011;10780;50.942;4.028;2023-02-08T00:57:10;50.50;;;29.70;;
21243;SDS011;10780;50.942;4.028;2023-02-08T00:59:37;52.90;;;29.23;;
21243;SDS011;10780;50.942;4.028;2023-02-08T01:02:03;60.38;;;30.42;;
21243;SDS011;10780;50.942;4.028;2023-02-08T01:04:29;60.97;;;30.88;;
21243;SDS011;10780;50.942;4.028;2023-02-08T01:06:54;54.25;;;28.92;;
21243;SDS011;10780;50.942;4.028;2023-02-08T01:09:20;53.63;;;30.10;;
21243;SDS011;10780;50.942;4.028;2023-02-08T01:11:46;55.10;;;30.23;;
21243;SDS011;10780;50.942;4.028;2023-02-08T01:14:11;59.50;;;31.33;;
21243;SDS011;10780;50.942;4.028;2023-02-08T01:16:37;53.25;;;30.60;;
21243;SDS011;10780;50.942;4.028;2023-02-08T01:19:03;52.90;;;29.58;;
21243;SDS011;10780;50.942;4.028;2023-02-08T01:21:31;59.38;;;30.98;;
21243;SDS011;10780;50.942;4.028;2023-02-08T01:23:58;56.70;;;30.42;;
21243;SDS011;10780;50.942;4.028;2023-02-08T01:26:24;51.08;;;29.38;;
21243;SDS011;10780;50.942;4.028;2023-02-08T01:28:50;54.13;;;30.27;;
21243;SDS011;10780;50.942;4.028;2023-02-08T01:31:18;55.97;;;29.67;;
21243;SDS011;10780;50.942;4.028;2023-02-08T01:33:46;54.53;;;28.90;;
21243;SDS011;10780;50.942;4.028;2023-02-08T01:36:12;52.72;;;29.98;;
21243;SDS011;10780;50.942;4.028;2023-02-08T01:38:39;52.58;;;28.33;;
21243;SDS011;10780;50.942;4.028;2023-02-08T01:41:05;54.42;;;29.52;;
21243;SDS011;10780;50.942;4.028;2023-02-08T01:46:25;58.40;;;29.83;;
21243;SDS011;10780;50.942;4.028;2023-02-08T01:48:51;55.03;;;30.75;;
21243;SDS011;10780;50.942;4.028;2023-02-08T01:51:19;60.10;;;30.80;;
21243;SDS011;10780;50.942;4.028;2023-02-08T01:53:47;62.50;;;31.30;;
21243;SDS011;10780;50.942;4.028;2023-02-08T01:56:19;65.20;;;34.03;;
21243;SDS011;10780;50.942;4.028;2023-02-08T01:58:48;58.70;;;31.88;;
21243;SDS011;10780;50.942;4.028;2023-02-08T02:01:18;57.90;;;30.85;;
21243;SDS011;10780;50.942;4.028;2023-02-08T02:03:43;59.03;;;31.05;;
21243;SDS011;10780;50.942;4.028;2023-02-08T02:06:14;52.63;;;29.48;;
21243;SDS011;10780;50.942;4.028;2023-02-08T02:11:37;56.33;;;30.15;;
21243;SDS011;10780;50.942;4.028;2023-02-08T02:14:03;55.78;;;29.90;;
21243;SDS011;10780;50.942;4.028;2023-02-08T02:16:30;54.55;;;30.55;;
21243;SDS011;10780;50.942;4.028;2023-02-08T02:18:55;54.65;;;28.77;;
21243;SDS011;10780;50.942;4.028;2023-02-08T02:34:52;52.25;;;28.45;;
21243;SDS011;10780;50.942;4.028;2023-02-08T02:40:10;50.55;;;26.33;;
21243;SDS011;10780;50.942;4.028;2023-02-08T02:45:54;43.40;;;24.98;;
21243;SDS011;10780;50.942;4.028;2023-02-08T02:51:25;44.72;;;24.38;;
21243;SDS011;10780;50.942;4.028;2023-02-08T02:54:07;40.47;;;22.88;;
21243;SDS011;10780;50.942;4.028;2023-02-08T02:56:40;43.05;;;24.25;;
21243;SDS011;10780;50.942;4.028;2023-02-08T02:59:11;44.83;;;24.95;;
21243;SDS011;10780;50.942;4.028;2023-02-08T03:01:40;47.47;;;25.80;;
21243;SDS011;10780;50.942;4.028;2023-02-08T03:04:12;50.10;;;26.80;;
21243;SDS011;10780;50.942;4.028;2023-02-08T03:15:46;51.58;;;27.73;;
21243;SDS011;10780;50.942;4.028;2023-02-08T03:18:28;53.97;;;27.88;;
21243;SDS011;10780;50.942;4.028;2023-02-08T03:26:37;54.05;;;29.05;;
21243;SDS011;10780;50.942;4.028;2023-02-08T03:29:11;46.75;;;28.45;;
21243;SDS011;10780;50.942;4.028;2023-02-08T03:31:46;51.22;;;27.67;;
21243;SDS011;10780;50.942;4.028;2023-02-08T03:34:22;51.60;;;29.00;;
21243;SDS011;10780;50.942;4.028;2023-02-08T03:37:29;52.45;;;28.80;;
21243;SDS011;10780;50.942;4.028;2023-02-08T03:40:06;49.42;;;26.58;;
21243;SDS011;10780;50.942;4.028;2023-02-08T03:42:38;50.13;;;27.42;;
21243;SDS011;10780;50.942;4.028;2023-02-08T03:45:06;48.58;;;26.08;;
21243;SDS011;10780;50.942;4.028;2023-02-08T03:47:39;49.70;;;27.52;;
21243;SDS011;10780;50.942;4.028;2023-02-08T03:50:08;47.08;;;26.30;;
21243;SDS011;10780;50.942;4.028;2023-02-08T03:52:36;44.40;;;26.00;;
21243;SDS011;10780;50.942;4.028;2023-02-08T03:55:08;48.08;;;26.60;;
21243;SDS011;10780;50.942;4.028;2023-02-08T03:57:39;50.15;;;27.92;;
21243;SDS011;10780;50.942;4.028;2023-02-08T04:00:17;55.65;;;28.88;;
21243;SDS011;10780;50.942;4.028;2023-02-08T04:02:54;47.40;;;26.15;;
21243;SDS011;10780;50.942;4.028;2023-02-08T04:05:25;51.88;;;28.50;;
21243;SDS011;10780;50.942;4.028;2023-02-08T04:07:51;50.83;;;27.10;;
21243;SDS011;10780;50.942;4.028;2023-02-08T04:10:17;49.83;;;26.80;;
21243;SDS011;10780;50.942;4.028;2023-02-08T04:12:43;53.85;;;27.90;;
21243;SDS011;10780;50.942;4.028;2023-02-08T04:15:10;44.10;;;26.88;;
21243;SDS011;10780;50.942;4.028;2023-02-08T04:17:36;54.10;;;28.25;;
21243;SDS011;10780;50.942;4.028;2023-02-08T04:20:02;54.15;;;28.88;;
21243;SDS011;10780;50.942;4.028;2023-02-08T04:22:28;58.45;;;29.38;;
21243;SDS011;10780;50.942;4.028;2023-02-08T04:24:53;55.17;;;28.13;;
21243;SDS011;10780;50.942;4.028;2023-02-08T04:27:19;52.05;;;28.70;;
21243;SDS011;10780;50.942;4.028;2023-02-08T04:29:44;51.03;;;28.52;;
21243;SDS011;10780;50.942;4.028;2023-02-08T04:32:10;53.47;;;28.17;;
21243;SDS011;10780;50.942;4.028;2023-02-08T04:34:37;49.00;;;28.75;;
21243;SDS011;10780;50.942;4.028;2023-02-08T04:37:04;50.95;;;27.50;;
21243;SDS011;10780;50.942;4.028;2023-02-08T04:39:30;51.13;;;26.25;;
21243;SDS011;10780;50.942;4.028;2023-02-08T04:41:55;47.67;;;26.20;;
21243;SDS011;10780;50.942;4.028;2023-02-08T04:44:21;45.58;;;27.02;;
21243;SDS011;10780;50.942;4.028;2023-02-08T04:46:47;46.10;;;26.75;;
21243;SDS011;10780;50.942;4.028;2023-02-08T04:49:12;51.10;;;28.35;;
21243;SDS011;10780;50.942;4.028;2023-02-08T04:51:38;49.60;;;27.45;;
21243;SDS011;10780;50.942;4.028;2023-02-08T04:54:04;49.45;;;27.73;;
21243;SDS011;10780;50.942;4.028;2023-02-08T04:56:29;51.47;;;27.20;;
21243;SDS011;10780;50.942;4.028;2023-02-08T04:58:55;50.20;;;26.20;;
21243;SDS011;10780;50.942;4.028;2023-02-08T05:01:20;45.25;;;26.73;;
21243;SDS011;10780;50.942;4.028;2023-02-08T05:03:46;47.38;;;26.27;;
21243;SDS011;10780;50.942;4.028;2023-02-08T05:06:12;50.28;;;27.30;;
21243;SDS011;10780;50.942;4.028;2023-02-08T05:08:38;47.42;;;25.58;;
21243;SDS011;10780;50.942;4.028;2023-02-08T05:11:04;47.50;;;25.50;;
21243;SDS011;10780;50.942;4.028;2023-02-08T05:13:30;49.13;;;26.17;;
21243;SDS011;10780;50.942;4.028;2023-02-08T05:15:56;44.22;;;25.05;;
21243;SDS011;10780;50.942;4.028;2023-02-08T05:18:22;45.47;;;24.00;;
21243;SDS011;10780;50.942;4.028;2023-02-08T05:20:57;44.80;;;24.60;;
21243;SDS011;10780;50.942;4.028;2023-02-08T05:23:24;44.10;;;25.90;;
21243;SDS011;10780;50.942;4.028;2023-02-08T05:25:51;47.10;;;25.58;;
21243;SDS011;10780;50.942;4.028;2023-02-08T05:28:16;54.33;;;29.92;;
21243;SDS011;10780;50.942;4.028;2023-02-08T05:30:42;59.17;;;31.02;;
21243;SDS011;10780;50.942;4.028;2023-02-08T05:33:08;56.58;;;29.83;;
21243;SDS011;10780;50.942;4.028;2023-02-08T05:35:34;51.20;;;28.65;;
21243;SDS011;10780;50.942;4.028;2023-02-08T05:37:59;53.92;;;28.00;;
21243;SDS011;10780;50.942;4.028;2023-02-08T05:40:25;48.28;;;26.42;;
21243;SDS011;10780;50.942;4.028;2023-02-08T05:42:51;51.30;;;25.98;;
21243;SDS011;10780;50.942;4.028;2023-02-08T05:45:16;46.47;;;25.73;;
21243;SDS011;10780;50.942;4.028;2023-02-08T05:47:42;42.15;;;24.73;;
21243;SDS011;10780;50.942;4.028;2023-02-08T05:50:08;46.50;;;25.05;;
21243;SDS011;10780;50.942;4.028;2023-02-08T05:52:34;41.42;;;22.25;;
21243;SDS011;10780;50.942;4.028;2023-02-08T05:55:00;43.85;;;22.35;;
21243;SDS011;10780;50.942;4.028;2023-02-08T05:57:25;39.35;;;22.48;;
21243;SDS011;10780;50.942;4.028;2023-02-08T05:59:51;38.22;;;21.27;;
21243;SDS011;10780;50.942;4.028;2023-02-08T06:02:17;41.97;;;22.15;;
21243;SDS011;10780;50.942;4.028;2023-02-08T06:04:42;37.78;;;22.70;;
21243;SDS011;10780;50.942;4.028;2023-02-08T06:07:08;40.55;;;22.15;;
21243;SDS011;10780;50.942;4.028;2023-02-08T06:09:33;39.22;;;21.70;;
21243;SDS011;10780;50.942;4.028;2023-02-08T06:11:59;36.92;;;22.20;;
21243;SDS011;10780;50.942;4.028;2023-02-08T06:14:25;37.92;;;22.63;;
21243;SDS011;10780;50.942;4.028;2023-02-08T06:16:50;41.28;;;22.02;;
21243;SDS011;10780;50.942;4.028;2023-02-08T06:19:16;42.17;;;21.13;;
21243;SDS011;10780;50.942;4.028;2023-02-08T06:21:42;36.05;;;21.13;;
21243;SDS011;10780;50.942;4.028;2023-02-08T06:24:07;34.05;;;21.33;;
21243;SDS011;10780;50.942;4.028;2023-02-08T06:26:35;36.00;;;20.25;;
21243;SDS011;10780;50.942;4.028;2023-02-08T06:29:01;35.58;;;20.67;;
21243;SDS011;10780;50.942;4.028;2023-02-08T06:31:27;37.35;;;20.65;;
21243;SDS011;10780;50.942;4.028;2023-02-08T06:33:53;37.45;;;20.88;;
21243;SDS011;10780;50.942;4.028;2023-02-08T06:36:19;33.80;;;19.58;;
21243;SDS011;10780;50.942;4.028;2023-02-08T06:38:45;35.08;;;21.38;;
21243;SDS011;10780;50.942;4.028;2023-02-08T06:41:10;32.25;;;20.23;;
21243;SDS011;10780;50.942;4.028;2023-02-08T06:43:36;36.42;;;21.05;;
21243;SDS011;10780;50.942;4.028;2023-02-08T06:46:02;35.00;;;20.38;;
21243;SDS011;10780;50.942;4.028;2023-02-08T06:48:29;40.63;;;21.58;;
21243;SDS011;10780;50.942;4.028;2023-02-08T06:50:55;42.70;;;23.25;;
21243;SDS011;10780;50.942;4.028;2023-02-08T06:53:21;40.30;;;24.35;;
21243;SDS011;10780;50.942;4.028;2023-02-08T06:55:49;37.95;;;23.63;;
21243;SDS011;10780;50.942;4.028;2023-02-08T06:58:15;38.03;;;22.50;;
21243;SDS011;10780;50.942;4.028;2023-02-08T07:00:41;37.08;;;20.98;;
21243;SDS011;10780;50.942;4.028;2023-02-08T07:03:09;39.35;;;22.52;;
21243;SDS011;10780;50.942;4.028;2023-02-08T07:05:36;37.55;;;22.63;;
21243;SDS011;10780;50.942;4.028;2023-02-08T07:08:03;43.05;;;22.80;;
21243;SDS011;10780;50.942;4.028;2023-02-08T07:10:29;43.72;;;24.15;;
21243;SDS011;10780;50.942;4.028;2023-02-08T07:12:54;40.92;;;24.20;;
21243;SDS011;10780;50.942;4.028;2023-02-08T07:15:20;39.95;;;23.08;;
21243;SDS011;10780;50.942;4.028;2023-02-08T07:17:46;41.78;;;24.55;;
21243;SDS011;10780;50.942;4.028;2023-02-08T07:20:15;45.20;;;25.60;;
21243;SDS011;10780;50.942;4.028;2023-02-08T07:22:41;44.75;;;24.52;;
21243;SDS011;10780;50.942;4.028;2023-02-08T07:25:07;42.25;;;23.83;;
21243;SDS011;10780;50.942;4.028;2023-02-08T07:27:34;38.58;;;23.45;;
21243;SDS011;10780;50.942;4.028;2023-02-08T07:30:02;39.72;;;24.90;;
21243;SDS011;10780;50.942;4.028;2023-02-08T07:32:30;43.80;;;24.73;;
21243;SDS011;10780;50.942;4.028;2023-02-08T07:34:55;40.70;;;23.58;;
21243;SDS011;10780;50.942;4.028;2023-02-08T07:37:21;43.40;;;23.33;;
21243;SDS011;10780;50.942;4.028;2023-02-08T07:39:47;38.15;;;23.63;;
21243;SDS011;10780;50.942;4.028;2023-02-08T07:42:13;42.03;;;24.67;;
21243;SDS011;10780;50.942;4.028;2023-02-08T07:44:39;43.22;;;23.52;;
21243;SDS011;10780;50.942;4.028;2023-02-08T07:47:05;38.25;;;22.23;;
21243;SDS011;10780;50.942;4.028;2023-02-08T07:49:32;39.08;;;22.27;;
21243;SDS011;10780;50.942;4.028;2023-02-08T07:51:59;42.65;;;23.15;;
21243;SDS011;10780;50.942;4.028;2023-02-08T07:54:25;48.72;;;26.83;;
21243;SDS011;10780;50.942;4.028;2023-02-08T07:56:51;49.33;;;28.65;;
21243;SDS011;10780;50.942;4.028;2023-02-08T07:59:18;45.70;;;26.70;;
21243;SDS011;10780;50.942;4.028;2023-02-08T08:01:43;77.38;;;36.30;;
21243;SDS011;10780;50.942;4.028;2023-02-08T08:04:09;52.70;;;28.30;;
21243;SDS011;10780;50.942;4.028;2023-02-08T08:06:36;55.83;;;29.65;;
21243;SDS011;10780;50.942;4.028;2023-02-08T08:09:02;50.50;;;26.67;;
21243;SDS011;10780;50.942;4.028;2023-02-08T08:11:28;42.38;;;25.77;;
21243;SDS011;10780;50.942;4.028;2023-02-08T08:13:53;42.58;;;24.63;;
21243;SDS011;10780;50.942;4.028;2023-02-08T08:16:19;36.15;;;20.98;;
21243;SDS011;10780;50.942;4.028;2023-02-08T08:18:45;37.33;;;22.58;;
21243;SDS011;10780;50.942;4.028;2023-02-08T08:21:11;39.65;;;22.58;;
21243;SDS011;10780;50.942;4.028;2023-02-08T08:23:39;35.22;;;21.20;;
21243;SDS011;10780;50.942;4.028;2023-02-08T08:26:09;34.08;;;22.40;;
21243;SDS011;10780;50.942;4.028;2023-02-08T08:28:43;37.25;;;21.23;;
21243;SDS011;10780;50.942;4.028;2023-02-08T08:31:16;32.65;;;20.52;;
21243;SDS011;10780;50.942;4.028;2023-02-08T08:33:44;39.20;;;21.67;;
21243;SDS011;10780;50.942;4.028;2023-02-08T08:36:10;30.27;;;19.30;;
21243;SDS011;10780;50.942;4.028;2023-02-08T08:38:36;37.42;;;20.08;;
21243;SDS011;10780;50.942;4.028;2023-02-08T08:41:10;31.50;;;20.33;;
21243;SDS011;10780;50.942;4.028;2023-02-08T08:43:42;32.72;;;18.52;;
21243;SDS011;10780;50.942;4.028;2023-02-08T08:46:08;31.30;;;18.98;;
21243;SDS011;10780;50.942;4.028;2023-02-08T08:48:34;26.95;;;17.80;;
21243;SDS011;10780;50.942;4.028;2023-02-08T08:51:02;29.80;;;18.02;;
21243;SDS011;10780;50.942;4.028;2023-02-08T08:53:28;37.75;;;19.38;;
21243;SDS011;10780;50.942;4.028;2023-02-08T08:55:54;30.65;;;17.88;;
21243;SDS011;10780;50.942;4.028;2023-02-08T08:58:21;26.92;;;17.25;;
21243;SDS011;10780;50.942;4.028;2023-02-08T09:00:47;30.27;;;17.88;;
21243;SDS011;10780;50.942;4.028;2023-02-08T09:03:14;28.55;;;17.48;;
21243;SDS011;10780;50.942;4.028;2023-02-08T09:05:39;26.75;;;17.52;;
21243;SDS011;10780;50.942;4.028;2023-02-08T09:08:05;27.33;;;17.42;;
21243;SDS011;10780;50.942;4.028;2023-02-08T09:10:31;26.50;;;16.85;;
21243;SDS011;10780;50.942;4.028;2023-02-08T09:12:58;25.73;;;16.58;;
21243;SDS011;10780;50.942;4.028;2023-02-08T09:15:23;22.50;;;15.77;;
21243;SDS011;10780;50.942;4.028;2023-02-08T09:17:50;21.60;;;14.95;;
21243;SDS011;10780;50.942;4.028;2023-02-08T09:20:17;22.48;;;14.00;;
21243;SDS011;10780;50.942;4.028;2023-02-08T09:22:43;22.45;;;14.52;;
21243;SDS011;10780;50.942;4.028;2023-02-08T09:25:09;22.35;;;14.05;;
21243;SDS011;10780;50.942;4.028;2023-02-08T09:27:35;21.25;;;14.15;;
21243;SDS011;10780;50.942;4.028;2023-02-08T09:30:01;23.80;;;14.23;;
21243;SDS011;10780;50.942;4.028;2023-02-08T09:32:30;26.27;;;15.63;;
21243;SDS011;10780;50.942;4.028;2023-02-08T09:34:59;22.23;;;14.98;;
21243;SDS011;10780;50.942;4.028;2023-02-08T09:37:26;24.95;;;15.25;;
21243;SDS011;10780;50.942;4.028;2023-02-08T09:39:52;23.55;;;14.38;;
21243;SDS011;10780;50.942;4.028;2023-02-08T09:44:53;21.00;;;13.27;;
21243;SDS011;10780;50.942;4.028;2023-02-08T09:47:49;18.95;;;13.40;;
21243;SDS011;10780;50.942;4.028;2023-02-08T09:50:38;17.77;;;12.30;;
21243;SDS011;10780;50.942;4.028;2023-02-08T09:53:28;21.20;;;13.38;;
21243;SDS011;10780;50.942;4.028;2023-02-08T09:56:01;22.63;;;12.98;;
21243;SDS011;10780;50.942;4.028;2023-02-08T09:58:37;23.65;;;13.25;;
21243;SDS011;10780;50.942;4.028;2023-02-08T10:01:27;20.15;;;11.98;;
21243;SDS011;10780;50.942;4.028;2023-02-08T10:04:08;20.25;;;12.43;;
21243;SDS011;10780;50.942;4.028;2023-02-08T10:06:54;19.90;;;12.07;;
21243;SDS011;10780;50.942;4.028;2023-02-08T10:09:21;18.17;;;11.75;;
21243;SDS011;10780;50.942;4.028;2023-02-08T10:17:46;17.50;;;11.23;;
21243;SDS011;10780;50.942;4.028;2023-02-08T10:22:59;19.88;;;10.65;;
21243;SDS011;10780;50.942;4.028;2023-02-08T10:31:24;15.77;;;10.82;;
21243;SDS011;10780;50.942;4.028;2023-02-08T10:34:15;16.23;;;10.95;;
21243;SDS011;10780;50.942;4.028;2023-02-08T10:37:13;17.33;;;10.80;;
21243;SDS011;10780;50.942;4.028;2023-02-08T10:39:44;17.25;;;10.43;;
21243;SDS011;10780;50.942;4.028;2023-02-08T10:42:12;16.10;;;10.32;;
21243;SDS011;10780;50.942;4.028;2023-02-08T10:52:44;16.80;;;10.13;;
21243;SDS011;10780;50.942;4.028;2023-02-08T10:55:13;15.70;;;10.30;;
21243;SDS011;10780;50.942;4.028;2023-02-08T10:57:42;13.85;;;9.50;;
21243;SDS011;10780;50.942;4.028;2023-02-08T11:00:16;10.85;;;9.18;;
21243;SDS011;10780;50.942;4.028;2023-02-08T11:02:48;11.32;;;8.60;;
21243;SDS011;10780;50.942;4.028;2023-02-08T11:05:17;14.80;;;8.50;;
21243;SDS011;10780;50.942;4.028;2023-02-08T11:13:31;11.85;;;7.18;;
21243;SDS011;10780;50.942;4.028;2023-02-08T11:15:59;11.65;;;7.72;;
21243;SDS011;10780;50.942;4.028;2023-02-08T11:18:30;11.70;;;7.50;;
21243;SDS011;10780;50.942;4.028;2023-02-08T11:21:01;10.38;;;7.20;;
21243;SDS011;10780;50.942;4.028;2023-02-08T11:23:30;12.45;;;7.32;;
21243;SDS011;10780;50.942;4.028;2023-02-08T11:29:21;10.13;;;6.88;;
21243;SDS011;10780;50.942;4.028;2023-02-08T11:32:00;9.82;;;6.47;;
21243;SDS011;10780;50.942;4.028;2023-02-08T11:34:28;10.13;;;6.72;;
21243;SDS011;10780;50.942;4.028;2023-02-08T11:36:57;8.35;;;6.70;;
21243;SDS011;10780;50.942;4.028;2023-02-08T11:39:39;11.85;;;7.40;;
21243;SDS011;10780;50.942;4.028;2023-02-08T11:42:23;8.45;;;5.57;;
21243;SDS011;10780;50.942;4.028;2023-02-08T11:44:50;9.63;;;6.07;;
21243;SDS011;10780;50.942;4.028;2023-02-08T11:47:22;8.98;;;6.38;;
21243;SDS011;10780;50.942;4.028;2023-02-08T11:49:55;10.93;;;6.25;;
21243;SDS011;10780;50.942;4.028;2023-02-08T11:52:30;11.60;;;6.13;;
21243;SDS011;10780;50.942;4.028;2023-02-08T12:01:04;8.30;;;5.80;;
21243;SDS011;10780;50.942;4.028;2023-02-08T12:03:40;8.30;;;5.75;;
21243;SDS011;10780;50.942;4.028;2023-02-08T12:08:44;8.27;;;5.20;;
21243;SDS011;10780;50.942;4.028;2023-02-08T12:11:20;8.45;;;5.30;;
21243;SDS011;10780;50.942;4.028;2023-02-08T12:17:03;7.78;;;4.72;;
21243;SDS011;10780;50.942;4.028;2023-02-08T12:22:26;6.70;;;4.47;;
21243;SDS011;10780;50.942;4.028;2023-02-08T12:28:09;6.97;;;4.75;;
21243;SDS011;10780;50.942;4.028;2023-02-08T12:30:47;9.00;;;5.55;;
21243;SDS011;10780;50.942;4.028;2023-02-08T12:50:05;6.70;;;4.43;;
21243;SDS011;10780;50.942;4.028;2023-02-08T12:52:49;7.65;;;4.68;;
21243;SDS011;10780;50.942;4.028;2023-02-08T12:57:51;6.05;;;4.43;;
21243;SDS011;10780;50.942;4.028;2023-02-08T13:00:22;6.50;;;4.10;;
21243;SDS011;10780;50.942;4.028;2023-02-08T13:05:24;7.40;;;3.90;;
21243;SDS011;10780;50.942;4.028;2023-02-08T13:08:06;4.53;;;3.75;;
21243;SDS011;10780;50.942;4.028;2023-02-08T13:10:54;6.15;;;4.10;;
21243;SDS011;10780;50.942;4.028;2023-02-08T13:13:24;6.07;;;3.67;;
21243;SDS011;10780;50.942;4.028;2023-02-08T13:15:55;6.68;;;4.35;;
21243;SDS011;10780;50.942;4.028;2023-02-08T13:18:29;6.28;;;4.18;;
21243;SDS011;10780;50.942;4.028;2023-02-08T13:23:35;7.10;;;4.57;;
21243;SDS011;10780;50.942;4.028;2023-02-08T13:26:03;6.05;;;4.47;;
21243;SDS011;10780;50.942;4.028;2023-02-08T13:28:32;5.40;;;4.00;;
21243;SDS011;10780;50.942;4.028;2023-02-08T13:31:11;6.25;;;4.18;;
21243;SDS011;10780;50.942;4.028;2023-02-08T13:33:44;5.47;;;3.97;;
21243;SDS011;10780;50.942;4.028;2023-02-08T13:36:27;5.30;;;4.18;;
21243;SDS011;10780;50.942;4.028;2023-02-08T13:38:57;6.65;;;4.18;;
21243;SDS011;10780;50.942;4.028;2023-02-08T13:41:24;7.70;;;4.30;;
21243;SDS011;10780;50.942;4.028;2023-02-08T13:43:53;7.38;;;4.15;;
21243;SDS011;10780;50.942;4.028;2023-02-08T13:46:25;4.63;;;3.90;;
21243;SDS011;10780;50.942;4.028;2023-02-08T13:48:54;4.97;;;3.60;;
21243;SDS011;10780;50.942;4.028;2023-02-08T14:04:43;5.75;;;3.60;;
21243;SDS011;10780;50.942;4.028;2023-02-08T14:12:53;7.05;;;3.90;;
21243;SDS011;10780;50.942;4.028;2023-02-08T14:15:03;5.57;;;3.40;;
21243;SDS011;10780;50.942;4.028;2023-02-08T14:17:31;4.30;;;3.08;;
21243;SDS011;10780;50.942;4.028;2023-02-08T14:19:58;6.20;;;3.38;;
21243;SDS011;10780;50.942;4.028;2023-02-08T14:22:29;5.30;;;3.65;;
21243;SDS011;10780;50.942;4.028;2023-02-08T14:25:03;5.18;;;3.60;;
21243;SDS011;10780;50.942;4.028;2023-02-08T14:27:34;7.50;;;3.42;;
21243;SDS011;10780;50.942;4.028;2023-02-08T14:32:44;5.90;;;3.70;;
21243;SDS011;10780;50.942;4.028;2023-02-08T14:35:25;5.80;;;3.83;;
21243;SDS011;10780;50.942;4.028;2023-02-08T14:45:45;4.55;;;3.88;;
21243;SDS011;10780;50.942;4.028;2023-02-08T14:48:32;5.38;;;3.67;;
21243;SDS011;10780;50.942;4.028;2023-02-08T14:59:07;5.75;;;3.72;;
21243;SDS011;10780;50.942;4.028;2023-02-08T15:01:42;6.32;;;3.97;;
21243;SDS011;10780;50.942;4.028;2023-02-08T15:04:13;5.13;;;3.63;;
21243;SDS011;10780;50.942;4.028;2023-02-08T15:09:18;9.35;;;4.07;;
21243;SDS011;10780;50.942;4.028;2023-02-08T15:11:48;4.90;;;4.00;;
21243;SDS011;10780;50.942;4.028;2023-02-08T15:14:21;8.13;;;4.00;;
21243;SDS011;10780;50.942;4.028;2023-02-08T15:16:47;7.20;;;4.25;;
21243;SDS011;10780;50.942;4.028;2023-02-08T15:22:34;8.93;;;5.00;;
21243;SDS011;10780;50.942;4.028;2023-02-08T15:25:09;7.82;;;5.22;;
21243;SDS011;10780;50.942;4.028;2023-02-08T15:27:44;10.20;;;5.93;;
21243;SDS011;10780;50.942;4.028;2023-02-08T15:33:00;9.40;;;5.22;;
21243;SDS011;10780;50.942;4.028;2023-02-08T15:35:27;7.70;;;5.10;;
21243;SDS011;10780;50.942;4.028;2023-02-08T15:37:55;8.57;;;5.47;;
21243;SDS011;10780;50.942;4.028;2023-02-08T15:40:26;9.77;;;5.47;;
21243;SDS011;10780;50.942;4.028;2023-02-08T15:42:54;7.97;;;4.90;;
21243;SDS011;10780;50.942;4.028;2023-02-08T15:45:26;8.20;;;5.05;;
21243;SDS011;10780;50.942;4.028;2023-02-08T15:47:55;8.48;;;5.72;;
21243;SDS011;10780;50.942;4.028;2023-02-08T15:50:22;8.60;;;5.82;;
21243;SDS011;10780;50.942;4.028;2023-02-08T15:52:59;8.48;;;5.55;;
21243;SDS011;10780;50.942;4.028;2023-02-08T15:55:30;8.35;;;5.57;;
21243;SDS011;10780;50.942;4.028;2023-02-08T15:58:07;7.57;;;5.53;;
21243;SDS011;10780;50.942;4.028;2023-02-08T16:00:42;7.85;;;4.88;;
21243;SDS011;10780;50.942;4.028;2023-02-08T16:03:19;8.63;;;5.18;;
21243;SDS011;10780;50.942;4.028;2023-02-08T16:05:51;8.23;;;4.72;;
21243;SDS011;10780;50.942;4.028;2023-02-08T16:08:21;12.77;;;4.97;;
21243;SDS011;10780;50.942;4.028;2023-02-08T16:10:51;9.38;;;5.40;;
21243;SDS011;10780;50.942;4.028;2023-02-08T16:13:22;7.88;;;5.10;;
21243;SDS011;10780;50.942;4.028;2023-02-08T16:15:50;6.82;;;4.90;;
21243;SDS011;10780;50.942;4.028;2023-02-08T16:18:31;7.88;;;4.82;;
21243;SDS011;10780;50.942;4.028;2023-02-08T16:21:50;8.45;;;5.15;;
21243;SDS011;10780;50.942;4.028;2023-02-08T16:32:18;10.05;;;5.75;;
21243;SDS011;10780;50.942;4.028;2023-02-08T16:34:53;11.18;;;6.13;;
21243;SDS011;10780;50.942;4.028;2023-02-08T16:42:24;11.23;;;6.00;;
21243;SDS011;10780;50.942;4.028;2023-02-08T16:47:34;14.80;;;6.97;;
21243;SDS011;10780;50.942;4.028;2023-02-08T16:50:24;10.68;;;6.10;;
21243;SDS011;10780;50.942;4.028;2023-02-08T16:52:57;12.13;;;6.63;;
21243;SDS011;10780;50.942;4.028;2023-02-08T16:55:29;11.23;;;6.60;;
21243;SDS011;10780;50.942;4.028;2023-02-08T16:57:57;12.52;;;6.22;;
21243;SDS011;10780;50.942;4.028;2023-02-08T17:00:41;11.77;;;6.35;;
21243;SDS011;10780;50.942;4.028;2023-02-08T17:03:07;11.60;;;6.40;;
21243;SDS011;10780;50.942;4.028;2023-02-08T17:05:37;11.65;;;6.65;;
21243;SDS011;10780;50.942;4.028;2023-02-08T17:08:04;11.93;;;6.68;;
21243;SDS011;10780;50.942;4.028;2023-02-08T17:10:32;11.85;;;7.35;;
21243;SDS011;10780;50.942;4.028;2023-02-08T17:12:59;12.77;;;7.35;;
21243;SDS011;10780;50.942;4.028;2023-02-08T17:15:25;11.02;;;7.32;;
21243;SDS011;10780;50.942;4.028;2023-02-08T17:17:51;11.52;;;7.32;;
21243;SDS011;10780;50.942;4.028;2023-02-08T17:20:23;8.95;;;6.75;;
21243;SDS011;10780;50.942;4.028;2023-02-08T17:22:53;11.00;;;8.15;;
21243;SDS011;10780;50.942;4.028;2023-02-08T17:25:20;14.20;;;8.55;;
21243;SDS011;10780;50.942;4.028;2023-02-08T17:27:47;12.65;;;8.15;;
21243;SDS011;10780;50.942;4.028;2023-02-08T17:30:27;12.93;;;8.40;;
21243;SDS011;10780;50.942;4.028;2023-02-08T17:32:55;13.32;;;8.25;;
21243;SDS011;10780;50.942;4.028;2023-02-08T17:35:22;12.60;;;8.27;;
21243;SDS011;10780;50.942;4.028;2023-02-08T17:37:48;15.63;;;8.60;;
21243;SDS011;10780;50.942;4.028;2023-02-08T17:40:17;12.88;;;8.20;;
21243;SDS011;10780;50.942;4.028;2023-02-08T17:42:43;17.70;;;8.85;;